createdAt,value
2016-02-07T14:20:09.356Z,12.61
2016-02-07T14:21:09.296Z,12.49
2016-02-07T14:22:09.283Z,12.5
2016-02-07T14:23:09.223Z,12.5
2016-02-07T14:24:09.149Z,12.5
2016-02-07T14:25:09.511Z,12.55
2016-02-07T14:26:09.046Z,12.53
2016-02-07T14:27:09.002Z,12.55
2016-02-07T14:28:08.959Z,12.46
2016-02-07T14:29:08.930Z,12.45
2016-02-07T14:30:08.870Z,12.4
2016-02-07T14:31:08.826Z,12.4
2016-02-07T14:32:08.767Z,12.42
2016-02-07T14:33:08.707Z,12.36
2016-02-07T14:34:09.023Z,12.45
2016-02-07T14:35:08.962Z,12.4
2016-02-07T14:36:08.903Z,12.25
2016-02-07T14:37:08.718Z,12.32
2016-02-07T14:38:08.675Z,12.25
2016-02-07T14:39:08.552Z,12.31
2016-02-07T14:40:08.352Z,12.25
2016-02-07T14:41:08.293Z,12.27
2016-02-07T14:42:08.311Z,12.17
2016-02-07T14:43:08.189Z,12.21
2016-02-07T14:44:08.144Z,12.15
2016-02-07T14:45:08.150Z,12.17
2016-02-07T14:46:08.059Z,12.13
2016-02-07T14:47:08.015Z,12.13
2016-02-07T14:48:07.986Z,12.06
2016-02-07T14:49:07.973Z,12.03
2016-02-07T14:50:07.819Z,11.94
2016-02-07T14:51:07.759Z,11.94
2016-02-07T14:52:07.778Z,11.86
2016-02-07T14:53:07.689Z,11.88
2016-02-07T14:54:07.614Z,11.77
2016-02-07T14:55:07.633Z,11.72
2016-02-07T14:56:07.590Z,11.72
2016-02-07T14:57:07.499Z,11.72
2016-02-07T14:58:07.424Z,11.59
2016-02-07T14:59:07.363Z,11.57
2016-02-07T15:00:07.366Z,11.54
2016-02-07T15:01:07.291Z,11.55
2016-02-07T15:02:07.231Z,11.52
2016-02-07T15:03:07.140Z,11.44
2016-02-07T15:04:07.129Z,11.41
2016-02-07T15:05:07.084Z,11.48
2016-02-07T15:06:06.995Z,11.48
2016-02-07T15:07:06.951Z,11.33
2016-02-07T15:08:06.906Z,11.4
2016-02-07T15:09:06.846Z,11.41
2016-02-07T15:10:06.787Z,11.3
2016-02-07T15:11:06.727Z,11.23
2016-02-07T15:12:06.717Z,11.32
2016-02-07T15:13:06.641Z,11.23
2016-02-07T15:14:06.616Z,11.19
2016-02-07T15:15:06.556Z,11.17
2016-02-07T15:16:06.466Z,11.23
2016-02-07T15:17:06.407Z,11.07
2016-02-07T15:18:06.393Z,11.08
2016-02-07T15:19:06.332Z,11.14
2016-02-07T15:20:06.261Z,11.02
2016-02-07T15:21:06.201Z,11.11
2016-02-07T15:22:06.157Z,11.08
2016-02-07T15:23:06.097Z,11.07
2016-02-07T15:24:06.039Z,10.97
2016-02-07T15:25:05.994Z,10.99
2016-02-07T15:26:05.965Z,10.9
2016-02-07T15:27:05.911Z,10.89
2016-02-07T15:28:05.930Z,10.92
2016-02-07T15:29:05.792Z,10.92
2016-02-07T15:30:05.732Z,10.9
2016-02-07T15:31:05.703Z,10.9
2016-02-07T15:32:05.690Z,10.89
2016-02-07T15:33:05.568Z,10.94
2016-02-07T15:34:05.555Z,11.04
2016-02-07T15:35:05.511Z,10.92
2016-02-07T15:36:05.435Z,11.04
2016-02-07T15:37:05.376Z,10.86
2016-02-07T15:38:05.347Z,10.93
2016-02-07T15:39:05.303Z,10.81
2016-02-07T15:40:05.243Z,10.86
2016-02-07T15:41:05.185Z,10.93
2016-02-07T15:42:05.125Z,10.94
2016-02-07T15:43:05.051Z,10.92
2016-02-07T15:44:05.021Z,10.89
2016-02-07T15:45:05.009Z,10.82
2016-02-07T15:46:04.917Z,10.82
2016-02-07T15:47:04.842Z,10.84
2016-02-07T15:48:04.845Z,10.79
2016-02-07T15:49:04.741Z,10.79
2016-02-07T15:50:04.697Z,10.76
2016-02-07T15:51:04.653Z,10.57
2016-02-07T15:52:04.609Z,10.68
2016-02-07T15:53:04.534Z,10.63
2016-02-07T15:54:04.493Z,10.74
2016-02-07T15:55:04.419Z,10.71
2016-02-07T15:56:04.422Z,10.71
2016-02-07T15:57:04.333Z,10.78
2016-02-07T15:58:04.305Z,10.74
2016-02-07T15:59:04.261Z,10.6
2016-02-07T16:00:04.169Z,10.61
2016-02-07T16:01:04.124Z,10.64
2016-02-07T16:02:04.065Z,10.64
2016-02-07T16:03:04.052Z,10.42
2016-02-07T16:04:03.851Z,10.56
2016-02-07T16:05:03.932Z,10.6
2016-02-07T16:06:03.888Z,10.46
2016-02-07T16:07:03.813Z,10.42
2016-02-07T16:08:03.770Z,10.49
2016-02-07T16:09:03.710Z,10.46
2016-02-07T16:10:03.653Z,10.49
2016-02-07T16:11:03.609Z,10.51
2016-02-07T16:12:03.549Z,10.48
2016-02-07T16:13:03.489Z,10.53
2016-02-07T16:14:03.477Z,10.37
2016-02-07T16:15:03.418Z,10.37
2016-02-07T16:16:03.357Z,10.33
2016-02-07T16:17:03.314Z,10.38
2016-02-07T16:18:03.254Z,10.42
2016-02-07T16:19:03.178Z,10.42
2016-02-07T16:20:03.134Z,10.4
2016-02-07T16:21:03.106Z,10.42
2016-02-07T16:22:03.078Z,10.34
2016-02-07T16:23:03.019Z,10.4
2016-02-07T16:24:02.919Z,10.28
2016-02-07T16:25:02.906Z,10.35
2016-02-07T16:26:02.831Z,10.37
2016-02-07T16:27:02.786Z,10.33
2016-02-07T16:28:02.726Z,10.3
2016-02-07T16:29:02.684Z,10.28
2016-02-07T16:30:02.624Z,10.3
2016-02-07T16:31:02.596Z,10.26
2016-02-07T16:32:02.504Z,10.3
2016-02-07T16:33:02.460Z,10.23
2016-02-07T16:34:02.415Z,10.37
2016-02-07T16:35:02.371Z,10.23
2016-02-07T16:36:02.328Z,10.25
2016-02-07T16:37:02.253Z,10.22
2016-02-07T16:38:02.208Z,10.3
2016-02-07T16:39:02.149Z,10.3
2016-02-07T16:40:02.121Z,10.2
2016-02-07T16:41:02.061Z,10.22
2016-02-07T16:42:02.001Z,10.19
2016-02-07T16:43:01.941Z,10.25
2016-02-07T16:44:01.913Z,10.23
2016-02-07T16:45:01.868Z,10.31
2016-02-07T16:46:01.792Z,10.35
2016-02-07T16:47:01.749Z,10.34
2016-02-07T16:48:01.704Z,10.28
2016-02-07T16:49:01.645Z,10.28
2016-02-07T16:50:01.586Z,10.33
2016-02-07T16:51:01.541Z,10.34
2016-02-07T16:52:01.497Z,10.33
2016-02-07T16:53:01.430Z,10.28
2016-02-07T16:54:01.402Z,10.31
2016-02-07T16:55:01.343Z,10.31
2016-02-07T16:56:01.284Z,10.35
2016-02-07T16:57:01.224Z,10.25
2016-02-07T16:58:01.149Z,10.26
2016-02-07T16:59:01.120Z,10.3
2016-02-07T17:00:01.076Z,10.33
2016-02-07T17:01:01.001Z,10.3
2016-02-07T17:02:00.988Z,10.37
2016-02-07T17:03:00.946Z,10.38
2016-02-07T17:04:00.870Z,10.35
2016-02-07T17:05:00.810Z,10.33
2016-02-07T17:06:00.767Z,10.31
2016-02-07T17:07:00.706Z,10.28
2016-02-07T17:08:00.694Z,10.2
2016-02-07T17:09:00.603Z,10.25
2016-02-07T17:10:00.574Z,10.25
2016-02-07T17:11:00.500Z,10.23
2016-02-07T17:12:00.487Z,10.23
2016-02-07T17:13:00.395Z,10.23
2016-02-07T17:14:00.367Z,10.22
2016-02-07T17:15:00.292Z,10.2
2016-02-07T17:16:00.264Z,10.12
2016-02-07T17:17:00.172Z,10.15
2016-02-07T17:18:00.128Z,10.15
2016-02-07T17:19:00.083Z,10.13
2016-02-07T17:20:00.024Z,10.12
2016-02-07T17:20:59.980Z,10.19
2016-02-07T17:21:59.910Z,10.19
2016-02-07T17:22:59.866Z,10.04
2016-02-07T17:23:59.853Z,10.16
2016-02-07T17:24:59.778Z,10.1
2016-02-07T17:25:59.749Z,10.04
2016-02-07T17:26:59.673Z,9.98
2016-02-07T17:27:59.597Z,10.13
2016-02-07T17:28:59.553Z,10.07
2016-02-07T17:29:59.525Z,10.1
2016-02-07T17:30:59.466Z,10.09
2016-02-07T17:31:59.407Z,10.04
2016-02-07T17:32:59.440Z,10.13
2016-02-07T17:33:59.303Z,10.1
2016-02-07T17:34:59.275Z,10.01
2016-02-07T17:35:59.214Z,10.1
2016-02-07T17:36:59.139Z,9.94
2016-02-07T17:37:59.080Z,9.95
2016-02-07T17:38:59.022Z,9.98
2016-02-07T17:39:58.977Z,9.92
2016-02-07T17:40:58.933Z,9.98
2016-02-07T17:41:58.874Z,9.77
2016-02-07T17:42:58.860Z,9.87
2016-02-07T17:43:58.769Z,9.74
2016-02-07T17:44:58.757Z,9.69
2016-02-07T17:45:58.668Z,9.72
2016-02-07T17:46:58.639Z,9.69
2016-02-07T17:47:58.562Z,9.69
2016-02-07T17:48:58.519Z,9.68
2016-02-07T17:49:58.442Z,9.74
2016-02-07T17:50:58.386Z,9.69
2016-02-07T17:51:58.638Z,9.68
2016-02-07T17:52:58.297Z,9.72
2016-02-07T17:53:58.221Z,9.68
2016-02-07T17:54:58.193Z,9.69
2016-02-07T17:55:58.099Z,9.56
2016-02-07T17:56:58.055Z,9.64
2016-02-07T17:57:58.011Z,9.68
2016-02-07T17:58:57.957Z,9.68
2016-02-07T17:59:57.896Z,9.64
2016-02-07T18:00:57.868Z,9.48
2016-02-07T18:01:57.793Z,9.54
2016-02-07T18:02:57.732Z,9.59
2016-02-07T18:03:57.673Z,9.55
2016-02-07T18:04:57.629Z,9.55
2016-02-07T18:05:57.569Z,9.55
2016-02-07T18:06:57.571Z,9.55
2016-02-07T18:07:57.481Z,9.56
2016-02-07T18:08:57.469Z,9.43
2016-02-07T18:09:57.377Z,9.5
2016-02-07T18:10:57.333Z,9.46
2016-02-07T18:11:57.290Z,9.4
2016-02-07T18:12:57.213Z,9.37
2016-02-07T18:13:57.138Z,9.43
2016-02-07T18:14:57.094Z,9.36
2016-02-07T18:15:57.051Z,9.34
2016-02-07T18:16:57.037Z,9.28
2016-02-07T18:17:56.945Z,9.32
2016-02-07T18:18:56.870Z,9.32
2016-02-07T18:19:56.820Z,9.31
2016-02-07T18:20:56.776Z,9.25
2016-02-07T18:21:56.732Z,9.23
2016-02-07T18:22:56.656Z,9.23
2016-02-07T18:23:56.644Z,9.22
2016-02-07T18:24:56.583Z,9.18
2016-02-07T18:25:56.494Z,9.19
2016-02-07T18:26:56.449Z,9.25
2016-02-07T18:27:56.420Z,9.25
2016-02-07T18:28:56.329Z,9.18
2016-02-07T18:29:56.285Z,9.14
2016-02-07T18:30:56.302Z,9.14
2016-02-07T18:31:56.165Z,9.03
2016-02-07T18:32:56.123Z,9.03
2016-02-07T18:33:56.126Z,9.14
2016-02-07T18:34:56.020Z,9.02
2016-02-07T18:35:55.959Z,9.13
2016-02-07T18:36:55.946Z,9.08
2016-02-07T18:37:55.856Z,9.08
2016-02-07T18:38:55.842Z,9
2016-02-07T18:39:55.783Z,9.11
2016-02-07T18:40:55.692Z,9.04
2016-02-07T18:41:55.679Z,9.03
2016-02-07T18:42:55.619Z,9.03
2016-02-07T18:43:55.544Z,9.1
2016-02-07T18:44:55.483Z,9.04
2016-02-07T18:45:55.439Z,9.13
2016-02-07T18:46:55.395Z,9.08
2016-02-07T18:47:55.350Z,9.02
2016-02-07T18:48:55.293Z,9.1
2016-02-07T18:49:55.233Z,9.1
2016-02-07T18:50:55.173Z,9.11
2016-02-07T18:51:55.113Z,9
2016-02-07T18:52:55.101Z,8.99
2016-02-07T18:53:55.041Z,9.1
2016-02-07T18:54:54.966Z,9
2016-02-07T18:55:54.891Z,9.1
2016-02-07T18:56:54.863Z,9.03
2016-02-07T18:57:54.788Z,9.04
2016-02-07T18:58:54.727Z,9.04
2016-02-07T18:59:54.698Z,8.99
2016-02-07T19:00:54.639Z,8.99
2016-02-07T19:01:54.594Z,9.13
2016-02-07T19:02:54.503Z,9.02
2016-02-07T19:03:54.507Z,9
2016-02-07T19:04:54.432Z,9.03
2016-02-07T19:05:54.387Z,8.99
2016-02-07T19:06:54.343Z,9
2016-02-07T19:07:54.252Z,8.95
2016-02-07T19:08:54.193Z,9.06
2016-02-07T19:09:54.196Z,9
2016-02-07T19:10:54.135Z,8.89
2016-02-07T19:11:54.060Z,9.02
2016-02-07T19:12:53.985Z,9
2016-02-07T19:13:53.988Z,8.92
2016-02-07T19:14:53.974Z,8.92
2016-02-07T19:15:53.853Z,8.89
2016-02-07T19:16:53.825Z,8.97
2016-02-07T19:17:53.733Z,8.92
2016-02-07T19:18:53.689Z,9.06
2016-02-07T19:19:53.617Z,8.88
2016-02-07T19:20:53.558Z,8.78
2016-02-07T19:21:53.513Z,8.78
2016-02-07T19:22:53.483Z,8.84
2016-02-07T19:23:53.408Z,8.84
2016-02-07T19:24:53.364Z,8.85
2016-02-07T19:25:53.289Z,8.91
2016-02-07T19:26:53.230Z,8.88
2016-02-07T19:27:53.185Z,8.82
2016-02-07T19:28:53.159Z,8.84
2016-02-07T19:29:53.068Z,8.91
2016-02-07T19:30:53.039Z,8.79
2016-02-07T19:31:52.979Z,8.74
2016-02-07T19:32:52.919Z,8.79
2016-02-07T19:33:52.845Z,8.79
2016-02-07T19:34:52.815Z,8.82
2016-02-07T19:35:52.756Z,8.81
2016-02-07T19:36:52.898Z,8.76
2016-02-07T19:37:52.667Z,8.76
2016-02-07T19:38:52.607Z,8.82
2016-02-07T19:39:52.532Z,8.76
2016-02-07T19:40:52.519Z,8.49
2016-02-07T19:41:52.459Z,8.51
2016-02-07T19:42:52.384Z,8.53
2016-02-07T19:43:52.340Z,8.64
2016-02-07T19:44:52.296Z,8.56
2016-02-07T19:45:52.237Z,8.6
2016-02-07T19:46:52.177Z,8.37
2016-02-07T19:47:52.117Z,8.48
2016-02-07T19:48:52.073Z,8.53
2016-02-07T19:49:52.006Z,8.46
2016-02-07T19:50:51.961Z,8.55
2016-02-07T19:51:51.886Z,8.6
2016-02-07T19:52:51.888Z,8.55
2016-02-07T19:53:51.781Z,8.55
2016-02-07T19:54:51.737Z,8.44
2016-02-07T19:55:51.693Z,8.49
2016-02-07T19:56:51.664Z,8.31
2016-02-07T19:57:51.589Z,8.45
2016-02-07T19:58:51.560Z,8.38
2016-02-07T19:59:51.454Z,8.28
2016-02-07T20:00:51.425Z,8.46
2016-02-07T20:01:51.350Z,8.49
2016-02-07T20:02:51.337Z,8.38
2016-02-07T20:03:51.247Z,8.44
2016-02-07T20:04:51.218Z,8.45
2016-02-07T20:05:51.018Z,8.41
2016-02-07T20:06:51.114Z,8.42
2016-02-07T20:07:51.038Z,8.44
2016-02-07T20:08:51.073Z,8.44
2016-02-07T20:09:50.936Z,8.09
2016-02-07T20:10:50.891Z,8.23
2016-02-07T20:11:50.847Z,8.27
2016-02-07T20:12:50.803Z,8.34
2016-02-07T20:13:50.759Z,8.27
2016-02-07T20:14:50.949Z,8.3
2016-02-07T20:15:50.635Z,8.3
2016-02-07T20:16:50.536Z,8.31
2016-02-07T20:17:50.450Z,8.27
2016-02-07T20:18:50.582Z,8.33
2016-02-07T20:19:50.356Z,8.28
2016-02-07T20:20:50.366Z,8.28
2016-02-07T20:21:50.270Z,8.26
2016-02-07T20:22:50.160Z,8.24
2016-02-07T20:23:50.126Z,8.26
2016-02-07T20:24:50.125Z,8.3
2016-02-07T20:25:50.374Z,8.24
2016-02-07T20:26:50.266Z,8.3
2016-02-07T20:27:50.189Z,8.27
2016-02-07T20:28:50.268Z,8.33
2016-02-07T20:29:50.052Z,8.34
2016-02-07T20:30:49.866Z,8.28
2016-02-07T20:31:49.664Z,8.24
2016-02-07T20:32:49.593Z,8.31
2016-02-07T20:33:49.533Z,8.18
2016-02-07T20:34:49.488Z,8.23
2016-02-07T20:35:49.489Z,8.24
2016-02-07T20:36:49.399Z,8.27
2016-02-07T20:37:49.324Z,8.2
2016-02-07T20:38:49.311Z,8.19
2016-02-07T20:39:49.205Z,8.18
2016-02-07T20:40:49.176Z,8.18
2016-02-07T20:41:49.147Z,8.15
2016-02-07T20:42:49.088Z,8.13
2016-02-07T20:43:49.012Z,8.1
2016-02-07T20:44:48.937Z,8.1
2016-02-07T20:45:48.940Z,8.19
2016-02-07T20:46:48.832Z,8.09
2016-02-07T20:47:48.788Z,8.05
2016-02-07T20:48:48.713Z,8.05
2016-02-07T20:49:48.673Z,8.1
2016-02-07T20:50:48.615Z,8.09
2016-02-07T20:51:48.554Z,8.08
2016-02-07T20:52:48.478Z,8.06
2016-02-07T20:53:48.467Z,8.08
2016-02-07T20:54:48.406Z,8.09
2016-02-07T20:55:48.377Z,8.09
2016-02-07T20:56:48.286Z,8
2016-02-07T20:57:48.352Z,8.01
2016-02-07T20:58:48.230Z,8.01
2016-02-07T20:59:48.125Z,7.95
2016-02-07T21:00:48.097Z,8
2016-02-07T21:01:48.037Z,8.08
2016-02-07T21:02:47.946Z,8.01
2016-02-07T21:03:47.886Z,8.1
2016-02-07T21:04:47.859Z,8.15
2016-02-07T21:05:47.784Z,8
2016-02-07T21:06:47.723Z,8.06
2016-02-07T21:07:47.649Z,7.88
2016-02-07T21:08:47.699Z,7.88
2016-02-07T21:09:47.592Z,8
2016-02-07T21:10:47.516Z,8.03
2016-02-07T21:11:47.441Z,8
2016-02-07T21:12:47.397Z,7.98
2016-02-07T21:13:47.400Z,8
2016-02-07T21:14:47.294Z,8.03
2016-02-07T21:15:47.361Z,8.05
2016-02-07T21:16:47.253Z,8.01
2016-02-07T21:17:47.272Z,7.95
2016-02-07T21:18:47.071Z,7.98
2016-02-07T21:19:47.164Z,7.97
2016-02-07T21:20:46.952Z,7.98
2016-02-07T21:21:46.907Z,8.01
2016-02-07T21:22:46.894Z,8.03
2016-02-07T21:23:46.803Z,7.98
2016-02-07T21:24:46.744Z,7.97
2016-02-07T21:25:46.703Z,7.98
2016-02-07T21:26:46.659Z,7.98
2016-02-07T21:27:46.631Z,7.88
2016-02-07T21:28:46.556Z,8.03
2016-02-07T21:29:46.481Z,8.03
2016-02-07T21:30:46.577Z,7.9
2016-02-07T21:31:46.407Z,7.9
2016-02-07T21:32:46.348Z,8
2016-02-07T21:33:46.257Z,7.9
2016-02-07T21:34:46.213Z,7.98
2016-02-07T21:35:46.248Z,7.87
2016-02-07T21:36:46.126Z,7.88
2016-02-07T21:37:46.035Z,7.8
2016-02-07T21:38:45.990Z,7.88
2016-02-07T21:39:45.916Z,7.93
2016-02-07T21:40:45.887Z,7.82
2016-02-07T21:41:45.828Z,7.91
2016-02-07T21:42:45.769Z,7.83
2016-02-07T21:43:45.817Z,7.88
2016-02-07T21:44:45.945Z,7.9
2016-02-07T21:45:45.808Z,7.87
2016-02-07T21:46:45.544Z,7.87
2016-02-07T21:47:45.722Z,7.9
2016-02-07T21:48:45.731Z,7.82
2016-02-07T21:49:45.750Z,7.76
2016-02-07T21:50:45.909Z,7.82
2016-02-07T21:51:45.802Z,7.79
2016-02-07T21:52:46.040Z,7.79
2016-02-07T21:53:45.433Z,7.85
2016-02-07T21:54:45.498Z,7.75
2016-02-07T21:55:45.455Z,7.63
2016-02-07T21:56:45.318Z,7.67
2016-02-07T21:57:48.242Z,7.73
2016-02-07T21:58:45.214Z,7.75
2016-02-07T21:59:45.170Z,7.63
2016-02-07T22:00:45.099Z,7.47
2016-02-07T22:01:44.992Z,7.57
2016-02-07T22:02:45.167Z,7.56
2016-02-07T22:03:44.936Z,7.61
2016-02-07T22:04:44.875Z,7.69
2016-02-07T22:05:44.831Z,7.6
2016-02-07T22:06:44.646Z,7.67
2016-02-07T22:07:44.727Z,7.69
2016-02-07T22:08:44.638Z,7.35
2016-02-07T22:09:44.765Z,7.39
2016-02-07T22:10:44.707Z,7.35
2016-02-07T22:11:44.584Z,7.28
2016-02-07T22:12:44.601Z,7.4
2016-02-07T22:13:44.480Z,7.39
2016-02-07T22:14:44.607Z,7.33
2016-02-07T22:15:44.359Z,7.42
2016-02-07T22:16:44.207Z,7.39
2016-02-07T22:17:43.930Z,7.39
2016-02-07T22:18:43.870Z,7.5
2016-02-07T22:19:44.029Z,7.5
2016-02-07T22:20:44.047Z,7.54
